Wetterdaten: Woche 04.10.10 - 10.10.10 (KW40)
Datum Zeit Temperatur Luftfeuchte Luftdruck Niederschlag Windrichtung Sonnenschein Solar Wind
04.10.2010 00:00 10,6 C 98 % 1005,6 hPa 0,0 l/m N 0,00 h 0 W/m 2,3 km/h (1 Bft)
04.10.2010 01:00 9,8 C 98 % 1005,5 hPa 0,0 l/m W-NW 0,00 h 0 W/m 4,0 km/h (1 Bft)
04.10.2010 02:00 9,5 C 98 % 1005,7 hPa 0,0 l/m N-NW 0,00 h 0 W/m 6,4 km/h (2 Bft)
04.10.2010 03:00 9,5 C 99 % 1005,4 hPa 0,0 l/m N-NW 0,00 h 0 W/m 3,6 km/h (1 Bft)
04.10.2010 04:00 9,6 C 99 % 1005,1 hPa 0,0 l/m N 0,00 h 0 W/m 3,9 km/h (1 Bft)
04.10.2010 05:00 9,5 C 99 % 1004,9 hPa 0,2 l/m N-NO 0,00 h 0 W/m 6,9 km/h (2 Bft)
04.10.2010 06:00 9,1 C 99 % 1004,8 hPa 0,0 l/m N-NO 0,00 h 0 W/m 6,1 km/h (2 Bft)
04.10.2010 07:00 9,0 C 99 % 1004,6 hPa 0,0 l/m N-NO 0,00 h 11 W/m 6,3 km/h (2 Bft)
04.10.2010 08:00 9,1 C 99 % 1004,4 hPa 0,0 l/m N-NO 0,08 h 53 W/m 6,5 km/h (2 Bft)
04.10.2010 09:00 9,5 C 100 % 1004,4 hPa 0,0 l/m NO 0,00 h 136 W/m 7,5 km/h (2 Bft)
04.10.2010 10:00 10,4 C 99 % 1004,1 hPa 0,0 l/m NO 0,25 h 223 W/m 10,2 km/h (2 Bft)
04.10.2010 11:00 12,4 C 92 % 1003,5 hPa 0,0 l/m O-NO 0,75 h 418 W/m 12,1 km/h (2 Bft)
04.10.2010 12:00 15,4 C 82 % 1002,9 hPa 0,0 l/m NO 1,00 h 551 W/m 12,5 km/h (3 Bft)
04.10.2010 13:00 17,7 C 75 % 1002,2 hPa 0,0 l/m O-NO 0,92 h 544 W/m 12,6 km/h (3 Bft)
04.10.2010 14:00 18,8 C 75 % 1001,0 hPa 0,0 l/m O-NO 0,83 h 418 W/m 13,6 km/h (3 Bft)
04.10.2010 15:00 19,9 C 72 % 1000,1 hPa 0,0 l/m O 0,92 h 431 W/m 13,2 km/h (3 Bft)
04.10.2010 16:00 20,8 C 69 % 999,7 hPa 0,0 l/m NO 0,58 h 208 W/m 10,5 km/h (2 Bft)
04.10.2010 17:00 20,5 C 71 % 999,5 hPa 0,0 l/m O 0,00 h 54 W/m 8,9 km/h (2 Bft)
04.10.2010 18:00 18,8 C 79 % 999,5 hPa 0,0 l/m N-NO 0,33 h 35 W/m 7,1 km/h (2 Bft)
04.10.2010 19:00 16,1 C 89 % 999,7 hPa 0,0 l/m N 0,00 h 0 W/m 3,5 km/h (1 Bft)
04.10.2010 20:00 14,3 C 94 % 1000,1 hPa 0,0 l/m N-NW 0,00 h 0 W/m 3,1 km/h (1 Bft)
04.10.2010 21:00 13,4 C 96 % 1000,5 hPa 0,0 l/m N-NW 0,00 h 0 W/m 4,7 km/h (1 Bft)
04.10.2010 22:00 13,1 C 96 % 1001,0 hPa 0,0 l/m N-NW 0,00 h 0 W/m 4,4 km/h (1 Bft)
04.10.2010 23:00 12,8 C 96 % 1001,7 hPa 0,0 l/m W-NW 0,00 h 0 W/m 6,6 km/h (2 Bft)
05.10.2010 00:00 12,7 C 96 % 1002,6 hPa 0,0 l/m S-SW 0,00 h 0 W/m 5,5 km/h (1 Bft)
05.10.2010 01:00 12,7 C 96 % 1003,5 hPa 0,2 l/m N 0,00 h 0 W/m 2,3 km/h (1 Bft)
05.10.2010 02:00 12,6 C 98 % 1004,0 hPa 1,0 l/m N 0,00 h 0 W/m 2,0 km/h (1 Bft)
05.10.2010 03:00 12,4 C 98 % 1004,3 hPa 1,4 l/m N 0,00 h 0 W/m 2,0 km/h (1 Bft)
05.10.2010 04:00 12,3 C 99 % 1004,4 hPa 0,0 l/m SO 0,00 h 0 W/m 2,7 km/h (1 Bft)
05.10.2010 05:00 12,4 C 99 % 1005,3 hPa 0,0 l/m N 0,00 h 0 W/m 0,9 km/h (0 Bft)
05.10.2010 06:00 12,6 C 99 % 1005,6 hPa 0,0 l/m N 0,00 h 0 W/m 0,5 km/h (0 Bft)
05.10.2010 07:00 12,7 C 99 % 1005,8 hPa 0,0 l/m N 0,00 h 0 W/m 0,5 km/h (0 Bft)
05.10.2010 08:00 12,8 C 99 % 1006,3 hPa 0,0 l/m N 0,00 h 25 W/m 0,0 km/h (0 Bft)
05.10.2010 09:00 13,3 C 99 % 1006,6 hPa 0,0 l/m N 0,00 h 44 W/m 0,3 km/h (0 Bft)
05.10.2010 10:00 13,8 C 99 % 1007,3 hPa 0,0 l/m S-SW 0,00 h 64 W/m 3,1 km/h (1 Bft)
05.10.2010 11:00 14,0 C 98 % 1007,6 hPa 0,2 l/m W-SW 0,00 h 62 W/m 8,2 km/h (2 Bft)
05.10.2010 12:00 13,8 C 97 % 1007,9 hPa 1,0 l/m W-SW 0,00 h 68 W/m 4,5 km/h (1 Bft)
05.10.2010 13:00 14,2 C 98 % 1007,8 hPa 0,0 l/m W-SW 0,00 h 119 W/m 5,3 km/h (1 Bft)
05.10.2010 14:00 14,3 C 97 % 1008,1 hPa 0,2 l/m S-SW 0,00 h 104 W/m 10,2 km/h (2 Bft)
05.10.2010 15:00 14,3 C 97 % 1008,4 hPa 0,0 l/m SW 0,00 h 113 W/m 11,3 km/h (2 Bft)
05.10.2010 16:00 14,4 C 97 % 1008,7 hPa 0,0 l/m S-SW 0,00 h 79 W/m 9,5 km/h (2 Bft)
05.10.2010 17:00 14,3 C 96 % 1009,0 hPa 0,0 l/m SW 0,00 h 39 W/m 8,6 km/h (2 Bft)
05.10.2010 18:00 14,0 C 97 % 1009,3 hPa 0,0 l/m SW 0,00 h 15 W/m 6,5 km/h (2 Bft)
05.10.2010 19:00 13,6 C 97 % 1010,1 hPa 0,0 l/m N 0,00 h 0 W/m 3,2 km/h (1 Bft)
05.10.2010 20:00 13,1 C 98 % 1010,6 hPa 0,0 l/m N 0,00 h 0 W/m 1,5 km/h (1 Bft)
05.10.2010 21:00 12,3 C 99 % 1011,0 hPa 0,0 l/m N 0,00 h 0 W/m 0,0 km/h (0 Bft)
05.10.2010 22:00 11,9 C 99 % 1011,6 hPa 0,0 l/m W-NW 0,00 h 0 W/m 0,9 km/h (0 Bft)
05.10.2010 23:00 11,3 C 99 % 1011,6 hPa 0,0 l/m N 0,00 h 0 W/m 0,0 km/h (0 Bft)
06.10.2010 00:00 10,6 C 99 % 1011,5 hPa 0,0 l/m N 0,00 h 0 W/m 0,0 km/h (0 Bft)
06.10.2010 01:00 10,2 C 100 % 1011,6 hPa 0,0 l/m N 0,00 h 0 W/m 0,0 km/h (0 Bft)
06.10.2010 02:00 10,3 C 100 % 1011,6 hPa 0,0 l/m N 0,00 h 0 W/m 0,0 km/h (0 Bft)
06.10.2010 03:00 10,6 C 100 % 1011,6 hPa 0,0 l/m N 0,00 h 0 W/m 0,1 km/h (0 Bft)
06.10.2010 04:00 10,7 C 100 % 1011,4 hPa 0,0 l/m N 0,00 h 0 W/m 0,1 km/h (0 Bft)
06.10.2010 05:00 10,6 C 100 % 1011,2 hPa 0,2 l/m W-NW 0,00 h 0 W/m 1,1 km/h (0 Bft)
06.10.2010 06:00 9,8 C 100 % 1011,2 hPa 0,0 l/m N-NW 0,00 h 0 W/m 4,1 km/h (1 Bft)
06.10.2010 07:00 9,3 C 100 % 1011,4 hPa 0,0 l/m N-NW 0,00 h 10 W/m 4,4 km/h (1 Bft)
06.10.2010 08:00 9,4 C 100 % 1011,9 hPa 0,0 l/m N-NW 0,00 h 48 W/m 5,3 km/h (1 Bft)
06.10.2010 09:00 9,9 C 100 % 1012,2 hPa 0,0 l/m N-NW 0,00 h 124 W/m 3,2 km/h (1 Bft)
06.10.2010 10:00 10,9 C 100 % 1012,6 hPa 0,0 l/m O-NO 0,17 h 195 W/m 4,4 km/h (1 Bft)
06.10.2010 11:00 12,3 C 100 % 1012,8 hPa 0,0 l/m N-NO 0,50 h 363 W/m 4,3 km/h (1 Bft)
06.10.2010 12:00 14,9 C 90 % 1012,7 hPa 0,0 l/m NO 0,83 h 516 W/m 5,9 km/h (2 Bft)
06.10.2010 13:00 17,0 C 81 % 1012,7 hPa 0,0 l/m O-SO 1,00 h 572 W/m 5,3 km/h (1 Bft)
06.10.2010 14:00 18,0 C 77 % 1012,5 hPa 0,0 l/m NO 1,00 h 506 W/m 6,0 km/h (2 Bft)
06.10.2010 15:00 18,5 C 75 % 1012,5 hPa 0,0 l/m O 0,75 h 321 W/m 7,8 km/h (2 Bft)
06.10.2010 16:00 18,6 C 78 % 1012,6 hPa 0,0 l/m S-SO 0,17 h 131 W/m 6,3 km/h (2 Bft)
06.10.2010 17:00 18,3 C 81 % 1013,0 hPa 0,0 l/m O-SO 0,00 h 51 W/m 3,7 km/h (1 Bft)
06.10.2010 18:00 16,9 C 89 % 1013,4 hPa 0,0 l/m O-NO 0,00 h 15 W/m 4,4 km/h (1 Bft)
06.10.2010 19:00 14,7 C 95 % 1014,2 hPa 0,0 l/m N 0,00 h 0 W/m 0,8 km/h (0 Bft)
06.10.2010 20:00 13,2 C 97 % 1014,5 hPa 0,0 l/m N 0,00 h 0 W/m 0,4 km/h (0 Bft)
06.10.2010 21:00 12,6 C 98 % 1015,2 hPa 0,0 l/m N-NO 0,00 h 0 W/m 3,7 km/h (1 Bft)
06.10.2010 22:00 13,0 C 99 % 1015,8 hPa 0,0 l/m N 0,00 h 0 W/m 5,1 km/h (1 Bft)
06.10.2010 23:00 13,3 C 99 % 1016,0 hPa 0,0 l/m NO 0,00 h 0 W/m 3,9 km/h (1 Bft)
07.10.2010 00:00 13,1 C 99 % 1016,2 hPa 0,0 l/m O-NO 0,00 h 0 W/m 4,4 km/h (1 Bft)
07.10.2010 01:00 12,8 C 99 % 1016,4 hPa 0,0 l/m O-NO 0,00 h 0 W/m 4,7 km/h (1 Bft)
07.10.2010 02:00 12,7 C 100 % 1016,6 hPa 0,0 l/m O-NO 0,00 h 0 W/m 4,0 km/h (1 Bft)
07.10.2010 03:00 12,7 C 100 % 1016,7 hPa 0,0 l/m N 0,00 h 0 W/m 3,2 km/h (1 Bft)
07.10.2010 04:00 12,5 C 100 % 1017,0 hPa 0,0 l/m NO 0,00 h 0 W/m 3,5 km/h (1 Bft)
07.10.2010 05:00 12,4 C 100 % 1017,2 hPa 0,0 l/m N 0,00 h 0 W/m 3,7 km/h (1 Bft)
07.10.2010 06:00 12,2 C 100 % 1017,4 hPa 0,0 l/m NO 0,00 h 0 W/m 4,0 km/h (1 Bft)
07.10.2010 07:00 12,1 C 100 % 1017,6 hPa 0,0 l/m O-NO 0,00 h 7 W/m 4,4 km/h (1 Bft)
07.10.2010 08:00 12,3 C 100 % 1018,1 hPa 0,2 l/m O-NO 0,00 h 18 W/m 4,8 km/h (1 Bft)
07.10.2010 09:00 12,6 C 100 % 1018,5 hPa 0,0 l/m NO 0,00 h 47 W/m 5,2 km/h (1 Bft)
07.10.2010 10:00 12,9 C 100 % 1018,9 hPa 0,0 l/m NO 0,00 h 92 W/m 5,3 km/h (1 Bft)
07.10.2010 11:00 13,4 C 100 % 1018,7 hPa 0,0 l/m NO 0,00 h 96 W/m 6,6 km/h (2 Bft)
07.10.2010 12:00 13,7 C 98 % 1018,5 hPa 0,0 l/m O-NO 0,00 h 99 W/m 9,1 km/h (2 Bft)
07.10.2010 13:00 13,9 C 96 % 1018,4 hPa 0,0 l/m O-NO 0,00 h 104 W/m 11,0 km/h (2 Bft)
07.10.2010 14:00 13,8 C 95 % 1018,1 hPa 0,0 l/m O-NO 0,00 h 83 W/m 11,2 km/h (2 Bft)
07.10.2010 15:00 14,1 C 94 % 1017,9 hPa 0,0 l/m O-NO 0,00 h 69 W/m 12,6 km/h (3 Bft)
07.10.2010 16:00 13,6 C 94 % 1017,9 hPa 0,0 l/m O 0,00 h 51 W/m 13,7 km/h (3 Bft)
07.10.2010 17:00 13,5 C 92 % 1017,9 hPa 0,0 l/m O 0,00 h 27 W/m 11,0 km/h (2 Bft)
07.10.2010 18:00 13,4 C 92 % 1018,2 hPa 0,0 l/m O-NO 0,00 h 9 W/m 11,3 km/h (2 Bft)
07.10.2010 19:00 12,8 C 93 % 1018,3 hPa 0,0 l/m O 0,00 h 0 W/m 12,9 km/h (3 Bft)
07.10.2010 20:00 12,5 C 94 % 1018,5 hPa 0,0 l/m O 0,00 h 0 W/m 9,2 km/h (2 Bft)
07.10.2010 21:00 12,3 C 94 % 1018,7 hPa 0,0 l/m O 0,00 h 0 W/m 9,5 km/h (2 Bft)
07.10.2010 22:00 12,3 C 94 % 1018,6 hPa 0,0 l/m O 0,00 h 0 W/m 7,9 km/h (2 Bft)
07.10.2010 23:00 12,5 C 93 % 1018,5 hPa 0,0 l/m O 0,00 h 0 W/m 7,4 km/h (2 Bft)
08.10.2010 00:00 12,6 C 93 % 1018,3 hPa 0,0 l/m O 0,00 h 0 W/m 7,3 km/h (2 Bft)
08.10.2010 01:00 12,5 C 93 % 1018,1 hPa 0,0 l/m O-NO 0,00 h 0 W/m 7,3 km/h (2 Bft)
08.10.2010 02:00 12,4 C 94 % 1018,1 hPa 0,0 l/m O 0,00 h 0 W/m 6,2 km/h (2 Bft)
08.10.2010 03:00 12,2 C 96 % 1018,1 hPa 0,0 l/m NO 0,00 h 0 W/m 3,5 km/h (1 Bft)
08.10.2010 04:00 12,1 C 97 % 1017,7 hPa 0,0 l/m O-NO 0,00 h 0 W/m 3,1 km/h (1 Bft)
08.10.2010 05:00 12,2 C 96 % 1017,4 hPa 0,0 l/m N 0,00 h 0 W/m 4,0 km/h (1 Bft)
08.10.2010 06:00 12,1 C 96 % 1017,2 hPa 0,0 l/m O-NO 0,00 h 0 W/m 4,1 km/h (1 Bft)
08.10.2010 07:00 12,1 C 96 % 1017,2 hPa 0,0 l/m O-NO 0,00 h 6 W/m 3,9 km/h (1 Bft)
08.10.2010 08:00 12,2 C 96 % 1017,3 hPa 0,0 l/m NO 0,00 h 25 W/m 5,5 km/h (1 Bft)
08.10.2010 09:00 12,5 C 95 % 1017,6 hPa 0,0 l/m NO 0,00 h 72 W/m 5,6 km/h (1 Bft)
08.10.2010 10:00 13,1 C 91 % 1017,9 hPa 0,0 l/m O 0,00 h 117 W/m 5,3 km/h (1 Bft)
08.10.2010 11:00 13,5 C 89 % 1017,9 hPa 0,0 l/m NO 0,00 h 147 W/m 4,1 km/h (1 Bft)
08.10.2010 12:00 14,1 C 88 % 1017,7 hPa 0,0 l/m NO 0,00 h 199 W/m 5,5 km/h (1 Bft)
08.10.2010 13:00 14,7 C 85 % 1017,5 hPa 0,0 l/m N-NO 0,08 h 261 W/m 7,9 km/h (2 Bft)
08.10.2010 14:00 15,5 C 83 % 1017,3 hPa 0,0 l/m N-NO 0,58 h 315 W/m 10,5 km/h (2 Bft)
08.10.2010 15:00 15,2 C 84 % 1017,0 hPa 0,0 l/m NO 0,00 h 210 W/m 12,5 km/h (3 Bft)
08.10.2010 16:00 14,8 C 86 % 1016,8 hPa 0,0 l/m NO 0,00 h 127 W/m 11,0 km/h (2 Bft)
08.10.2010 17:00 14,2 C 88 % 1016,9 hPa 0,0 l/m N 0,00 h 57 W/m 11,8 km/h (2 Bft)
08.10.2010 18:00 13,3 C 92 % 1017,0 hPa 0,0 l/m N-NO 0,00 h 11 W/m 10,5 km/h (2 Bft)
08.10.2010 19:00 12,8 C 94 % 1017,2 hPa 0,0 l/m N-NO 0,00 h 0 W/m 9,8 km/h (2 Bft)
08.10.2010 20:00 12,9 C 93 % 1017,3 hPa 0,0 l/m O-NO 0,00 h 0 W/m 8,3 km/h (2 Bft)
08.10.2010 21:00 12,4 C 94 % 1017,4 hPa 0,0 l/m O-SO 0,00 h 0 W/m 8,4 km/h (2 Bft)
08.10.2010 22:00 12,5 C 94 % 1017,5 hPa 0,0 l/m O 0,00 h 0 W/m 4,7 km/h (1 Bft)
08.10.2010 23:00 12,5 C 93 % 1017,4 hPa 0,0 l/m O-NO 0,00 h 0 W/m 6,3 km/h (2 Bft)
09.10.2010 00:00 12,2 C 95 % 1017,1 hPa 0,0 l/m SO 0,00 h 0 W/m 4,0 km/h (1 Bft)
09.10.2010 01:00 11,8 C 97 % 1017,0 hPa 0,0 l/m O 0,00 h 0 W/m 2,8 km/h (1 Bft)
09.10.2010 02:00 11,6 C 98 % 1016,8 hPa 0,0 l/m NO 0,00 h 0 W/m 5,6 km/h (1 Bft)
09.10.2010 03:00 11,4 C 98 % 1016,5 hPa 0,0 l/m NO 0,00 h 0 W/m 6,4 km/h (2 Bft)
09.10.2010 04:00 11,0 C 98 % 1016,2 hPa 0,0 l/m NO 0,00 h 0 W/m 6,4 km/h (2 Bft)
09.10.2010 05:00 10,7 C 99 % 1016,4 hPa 0,0 l/m NO 0,00 h 0 W/m 5,9 km/h (2 Bft)
09.10.2010 06:00 10,5 C 99 % 1016,3 hPa 0,0 l/m N-NO 0,00 h 0 W/m 5,9 km/h (2 Bft)
09.10.2010 07:00 9,8 C 99 % 1016,4 hPa 0,2 l/m N-NO 0,00 h 5 W/m 5,7 km/h (1 Bft)
09.10.2010 08:00 9,3 C 99 % 1016,5 hPa 0,0 l/m N-NO 0,00 h 17 W/m 4,9 km/h (1 Bft)
09.10.2010 09:00 9,3 C 99 % 1016,8 hPa 0,0 l/m N 0,00 h 44 W/m 5,2 km/h (1 Bft)
09.10.2010 10:00 9,3 C 99 % 1016,8 hPa 0,0 l/m N-NO 0,00 h 70 W/m 5,9 km/h (2 Bft)
09.10.2010 11:00 9,4 C 98 % 1016,5 hPa 0,0 l/m N-NO 0,00 h 95 W/m 6,5 km/h (2 Bft)
09.10.2010 12:00 9,8 C 98 % 1016,1 hPa 0,0 l/m NO 0,00 h 115 W/m 6,9 km/h (2 Bft)
09.10.2010 13:00 10,3 C 97 % 1015,5 hPa 0,0 l/m NO 0,00 h 96 W/m 8,0 km/h (2 Bft)
09.10.2010 14:00 10,4 C 97 % 1015,0 hPa 0,0 l/m O-NO 0,00 h 84 W/m 9,5 km/h (2 Bft)
09.10.2010 15:00 10,6 C 96 % 1014,6 hPa 0,0 l/m NO 0,00 h 69 W/m 11,6 km/h (2 Bft)
09.10.2010 16:00 10,5 C 96 % 1014,4 hPa 0,0 l/m NO 0,00 h 50 W/m 12,6 km/h (3 Bft)
09.10.2010 17:00 10,5 C 95 % 1014,2 hPa 0,0 l/m O-NO 0,00 h 32 W/m 10,9 km/h (2 Bft)
09.10.2010 18:00 10,7 C 92 % 1014,1 hPa 0,0 l/m O-SO 0,00 h 12 W/m 7,9 km/h (2 Bft)
09.10.2010 19:00 9,4 C 95 % 1014,1 hPa 0,0 l/m N 0,00 h 0 W/m 2,4 km/h (1 Bft)
09.10.2010 20:00 8,0 C 98 % 1014,0 hPa 0,0 l/m O 0,00 h 0 W/m 3,3 km/h (1 Bft)
09.10.2010 21:00 7,8 C 99 % 1013,6 hPa 0,0 l/m N 0,00 h 0 W/m 3,9 km/h (1 Bft)
09.10.2010 22:00 7,4 C 99 % 1013,2 hPa 0,0 l/m N 0,00 h 0 W/m 3,1 km/h (1 Bft)
09.10.2010 23:00 6,8 C 99 % 1012,8 hPa 0,0 l/m N 0,00 h 0 W/m 1,1 km/h (0 Bft)
10.10.2010 00:00 6,2 C 99 % 1012,6 hPa 0,0 l/m N 0,00 h 0 W/m 2,9 km/h (1 Bft)
10.10.2010 01:00 5,3 C 99 % 1012,4 hPa 0,0 l/m N 0,00 h 0 W/m 3,6 km/h (1 Bft)
10.10.2010 02:00 4,8 C 98 % 1012,0 hPa 0,2 l/m N 0,00 h 0 W/m 2,8 km/h (1 Bft)
10.10.2010 03:00 4,6 C 98 % 1011,7 hPa 0,0 l/m N 0,00 h 0 W/m 3,3 km/h (1 Bft)
10.10.2010 04:00 4,3 C 98 % 1011,0 hPa 0,0 l/m NW 0,00 h 0 W/m 5,1 km/h (1 Bft)
10.10.2010 05:00 4,8 C 98 % 1010,7 hPa 0,0 l/m N-NO 0,00 h 0 W/m 5,3 km/h (1 Bft)
10.10.2010 06:00 5,1 C 97 % 1010,7 hPa 0,0 l/m N 0,00 h 0 W/m 6,9 km/h (2 Bft)
10.10.2010 07:00 4,9 C 96 % 1010,7 hPa 0,0 l/m N 0,00 h 0 W/m 5,7 km/h (1 Bft)
10.10.2010 08:00 4,9 C 97 % 1011,0 hPa 0,0 l/m N-NO 0,00 h 19 W/m 6,4 km/h (2 Bft)
10.10.2010 09:00 5,1 C 98 % 1011,0 hPa 0,0 l/m NO 0,00 h 43 W/m 6,8 km/h (2 Bft)
10.10.2010 10:00 5,6 C 97 % 1011,0 hPa 0,0 l/m NO 0,00 h 76 W/m 9,0 km/h (2 Bft)
10.10.2010 11:00 6,2 C 96 % 1010,9 hPa 0,0 l/m N-NO 0,00 h 104 W/m 8,2 km/h (2 Bft)
10.10.2010 12:00 7,2 C 94 % 1010,6 hPa 0,0 l/m NO 0,00 h 139 W/m 12,0 km/h (2 Bft)
10.10.2010 13:00 8,1 C 93 % 1010,2 hPa 0,0 l/m O-NO 0,00 h 197 W/m 15,3 km/h (3 Bft)
10.10.2010 14:00 11,1 C 79 % 1009,3 hPa 0,0 l/m O 0,92 h 446 W/m 18,8 km/h (3 Bft)
10.10.2010 15:00 13,1 C 66 % 1008,5 hPa 0,0 l/m O-NO 0,92 h 342 W/m 21,4 km/h (4 Bft)
10.10.2010 16:00 13,8 C 58 % 1008,2 hPa 0,0 l/m O 0,00 h 83 W/m 21,4 km/h (4 Bft)
10.10.2010 17:00 13,3 C 55 % 1008,3 hPa 0,0 l/m O-NO 0,00 h 36 W/m 22,1 km/h (4 Bft)
10.10.2010 18:00 12,0 C 57 % 1008,7 hPa 0,0 l/m O-NO 0,00 h 12 W/m 15,6 km/h (3 Bft)
10.10.2010 19:00 9,8 C 66 % 1008,8 hPa 0,0 l/m NO 0,00 h 0 W/m 10,3 km/h (2 Bft)
10.10.2010 20:00 9,4 C 67 % 1008,6 hPa 0,0 l/m N-NO 0,00 h 0 W/m 13,4 km/h (3 Bft)
10.10.2010 21:00 8,2 C 74 % 1008,5 hPa 0,0 l/m N-NO 0,00 h 0 W/m 11,1 km/h (2 Bft)
10.10.2010 22:00 7,8 C 78 % 1008,4 hPa 0,0 l/m N-NO 0,00 h 0 W/m 11,7 km/h (2 Bft)
10.10.2010 23:00 7,5 C 82 % 1008,3 hPa 0,0 l/m NO 0,00 h 0 W/m 12,6 km/h (3 Bft)
Min-Datum _ 10.10.10 10.10.10 04.10.10 - - - - 04.10.10
_ Min-Zeit 04:40 17:25 16:35 - - - - 00:20
Minimum _ 4,1 C 54 % 999,4 hPa - - - - 0,0 km/h (0 Bft)
Max-Datum _ 04.10.10 04.10.10 07.10.10 05.10.10 - 04.10.10 06.10.10 10.10.10
_ Max-Zeit 16:55 07:50 10:35 03:05 - 08:55 12:10 17:00
Maximum _ 21,1 C 100 % 1019,0 hPa 1,4 l/m - 0,08 h 700 W/m 30,6 km/h
O-NO (5 Bft)
Durchschnitt _ 11,9 C 93 % 1012,0 hPa #5,0 l/m NO #12:35 h 135 W/m 6,5 km/h (2 Bft)